Time;durP1;ratioP1;P1;durP2;ratioP2;P2;SDS_P1;SDS_P2;PMS_P1;PMS_P2;Temp;Humidity;BMP_temperature;BMP_pressure;BME280_temperature;BME280_humidity;BME280_pressure;Samples;Min_cycle;Max_cycle;Signal;HPM_P1;HPM_P2
2023/05/27 00:01:13;;;;;;;4.53;4.07;;;;;;;;;;10099482;28;20074;-62
2023/05/27 00:06:11;;;;;;;4.05;3.75;;;;;;;;;;10097289;28;20075;-63
2023/05/27 00:11:11;;;;;;;4.45;4.05;;;;;;;;;;10096955;28;20074;-63
2023/05/27 00:16:09;;;;;;;5.03;3.58;;;;;;;;;;10098838;28;20101;-64
2023/05/27 00:21:07;;;;;;;5.05;3.58;;;;;;;;;;10099006;28;20101;-63
2023/05/27 00:26:06;;;;;;;4.32;3.63;;;;;;;;;;10099981;28;20078;-64
2023/05/27 00:31:05;;;;;;;4.45;4.13;;;;;;;;;;10098900;28;20491;-63
2023/05/27 00:36:03;;;;;;;7.25;3.92;;;;;;;;;;10099862;28;20071;-62
2023/05/27 00:41:03;;;;;;;3.95;3.63;;;;;;;;;;10095894;28;20082;-63
2023/05/27 00:46:02;;;;;;;4.28;3.83;;;;;;;;;;10098338;28;20066;-63
2023/05/27 00:51:02;;;;;;;4.28;3.85;;;;;;;;;;10097373;28;20074;-63
2023/05/27 00:56:00;;;;;;;7.15;4.28;;;;;;;;;;10094922;28;20331;-62
2023/05/27 01:00:58;;;;;;;7.32;4.85;;;;;;;;;;10093869;28;20082;-62
2023/05/27 01:06:05;;;;;;;5.97;5.38;;;;;;;;;;10096815;28;20074;-62
2023/05/27 01:11:08;;;;;;;6.03;4.72;;;;;;;;;;10096359;28;20505;-62
2023/05/27 01:16:10;;;;;;;8.13;5.13;;;;;;;;;;10099098;28;20077;-63
2023/05/27 01:21:16;;;;;;;6.75;4.88;;;;;;;;;;10097642;28;20090;-63
2023/05/27 01:26:16;;;;;;;6.43;5.30;;;;;;;;;;10096098;28;20086;-63
2023/05/27 01:31:17;;;;;;;7.30;6.60;;;;;;;;;;10092992;28;20075;-63
2023/05/27 01:36:17;;;;;;;7.18;6.47;;;;;;;;;;10093020;28;20078;-63
2023/05/27 01:41:17;;;;;;;7.45;6.72;;;;;;;;;;10095785;28;20119;-61
2023/05/27 01:46:15;;;;;;;8.35;5.95;;;;;;;;;;10097223;28;20082;-62
2023/05/27 01:51:15;;;;;;;9.18;6.97;;;;;;;;;;10096986;28;20066;-63
2023/05/27 01:56:14;;;;;;;9.98;5.85;;;;;;;;;;10089982;28;20074;-63
2023/05/27 02:01:13;;;;;;;10.98;6.70;;;;;;;;;;10091130;28;20079;-63
2023/05/27 02:06:12;;;;;;;10.82;6.82;;;;;;;;;;10093287;28;20047;-63
2023/05/27 02:11:10;;;;;;;7.38;6.65;;;;;;;;;;10101411;28;20075;-63
2023/05/27 02:16:08;;;;;;;7.30;6.13;;;;;;;;;;10100599;28;20079;-63
2023/05/27 02:21:08;;;;;;;10.77;6.85;;;;;;;;;;10094662;28;20501;-64
2023/05/27 02:26:06;;;;;;;7.25;6.57;;;;;;;;;;10093651;28;20047;-63
2023/05/27 02:31:06;;;;;;;10.80;7.30;;;;;;;;;;10091338;28;20089;-63
2023/05/27 02:36:05;;;;;;;10.50;7.05;;;;;;;;;;10096167;28;20070;-63
2023/05/27 02:41:06;;;;;;;14.07;6.47;;;;;;;;;;10115760;28;20086;-63
2023/05/27 02:46:05;;;;;;;10.65;6.82;;;;;;;;;;10100951;28;20070;-62
2023/05/27 02:51:03;;;;;;;14.68;7.07;;;;;;;;;;10102273;28;20114;-64
2023/05/27 02:56:01;;;;;;;9.35;6.85;;;;;;;;;;10102412;28;20086;-64
2023/05/27 03:01:01;;;;;;;14.38;7.65;;;;;;;;;;10103778;28;20083;-63
2023/05/27 03:06:03;;;;;;;10.88;6.95;;;;;;;;;;10101353;28;20075;-63
2023/05/27 03:11:01;;;;;;;11.40;6.93;;;;;;;;;;10101208;28;20071;-63
2023/05/27 03:16:02;;;;;;;9.02;7.22;;;;;;;;;;10102144;28;20070;-63
2023/05/27 03:21:01;;;;;;;10.43;6.78;;;;;;;;;;10097660;28;20481;-63
2023/05/27 03:25:59;;;;;;;11.68;7.00;;;;;;;;;;10101622;28;20082;-63
2023/05/27 03:30:59;;;;;;;8.38;6.75;;;;;;;;;;10097520;28;20046;-63
2023/05/27 03:36:16;;;;;;;12.18;7.40;;;;;;;;;;10097479;28;20075;-64
2023/05/27 03:41:14;;;;;;;12.10;7.20;;;;;;;;;;10114702;28;20098;-64
2023/05/27 03:46:13;;;;;;;12.82;7.93;;;;;;;;;;10097292;28;20082;-63
2023/05/27 03:51:12;;;;;;;11.75;7.00;;;;;;;;;;10097482;28;20556;-61
2023/05/27 03:56:12;;;;;;;7.60;6.55;;;;;;;;;;10099758;28;20071;-63
2023/05/27 04:01:11;;;;;;;17.40;8.32;;;;;;;;;;10098543;28;20078;-63
2023/05/27 04:06:09;;;;;;;10.25;6.35;;;;;;;;;;10110796;28;20075;-64
2023/05/27 04:11:12;;;;;;;12.65;6.80;;;;;;;;;;10098238;28;20085;-64
2023/05/27 04:16:12;;;;;;;8.43;6.75;;;;;;;;;;10099076;28;20077;-63
2023/05/27 04:21:10;;;;;;;9.90;7.53;;;;;;;;;;10098670;28;20531;-64
2023/05/27 04:26:09;;;;;;;10.00;7.80;;;;;;;;;;10097836;28;20078;-64
2023/05/27 04:31:12;;;;;;;9.63;6.75;;;;;;;;;;10100037;28;20080;-63
2023/05/27 04:36:18;;;;;;;10.45;6.78;;;;;;;;;;10095698;28;20086;-64
2023/05/27 04:41:28;;;;;;;13.35;7.43;;;;;;;;;;10097033;28;20091;-64
2023/05/27 04:46:28;;;;;;;10.15;7.15;;;;;;;;;;10098265;28;20528;-64
2023/05/27 04:51:27;;;;;;;14.05;7.35;;;;;;;;;;10091815;28;20089;-63
2023/05/27 04:56:27;;;;;;;14.73;13.40;;;;;;;;;;10096388;28;20349;-64
2023/05/27 05:01:27;;;;;;;10.82;8.95;;;;;;;;;;10111255;28;20097;-63
2023/05/27 05:06:35;;;;;;;9.85;7.45;;;;;;;;;;10092850;28;20101;-63
2023/05/27 05:11:34;;;;;;;14.02;7.38;;;;;;;;;;10094436;28;20078;-63
2023/05/27 05:16:35;;;;;;;10.93;7.03;;;;;;;;;;10093572;28;20516;-63
2023/05/27 05:21:33;;;;;;;12.80;8.13;;;;;;;;;;10092278;28;20095;-63
2023/05/27 05:26:33;;;;;;;8.13;6.80;;;;;;;;;;10093333;28;20098;-63
2023/05/27 05:31:33;;;;;;;9.70;7.15;;;;;;;;;;10095188;28;20067;-63
2023/05/27 05:36:33;;;;;;;9.00;7.40;;;;;;;;;;10096152;28;20079;-63
2023/05/27 05:41:37;;;;;;;7.80;7.00;;;;;;;;;;10089339;28;20521;-64
2023/05/27 05:46:36;;;;;;;12.70;7.60;;;;;;;;;;10094942;28;20077;-63
2023/05/27 05:51:35;;;;;;;9.82;7.30;;;;;;;;;;10099441;28;20082;-63
2023/05/27 05:56:33;;;;;;;11.40;6.85;;;;;;;;;;10096096;28;20089;-65
2023/05/27 06:01:33;;;;;;;12.73;8.15;;;;;;;;;;10094937;28;20527;-64
2023/05/27 06:06:32;;;;;;;10.43;7.25;;;;;;;;;;10096991;28;20066;-64
2023/05/27 06:11:50;;;;;;;19.30;8.63;;;;;;;;;;10103694;28;20074;-63
2023/05/27 06:16:50;;;;;;;13.55;7.55;;;;;;;;;;10110548;28;20088;-63
2023/05/27 06:21:48;;;;;;;11.73;7.82;;;;;;;;;;10107352;28;20074;-63
2023/05/27 06:27:08;;;;;;;10.18;7.40;;;;;;;;;;10060144;29;20083;-63
2023/05/27 06:32:09;;;;;;;10.70;8.13;;;;;;;;;;10062659;29;20086;-63
2023/05/27 06:37:07;;;;;;;12.73;7.60;;;;;;;;;;10067237;28;20067;-63
2023/05/27 06:42:06;;;;;;;9.93;7.45;;;;;;;;;;10070410;28;20082;-63
2023/05/27 06:47:32;;;;;;;10.67;8.50;;;;;;;;;;10064574;28;20656;-63
2023/05/27 06:52:31;;;;;;;13.75;8.13;;;;;;;;;;10067809;28;20086;-63
2023/05/27 06:57:47;;;;;;;10.80;8.43;;;;;;;;;;10077926;28;20079;-61
2023/05/27 07:02:54;;;;;;;13.43;8.95;;;;;;;;;;10077561;28;20083;-63
2023/05/27 07:07:52;;;;;;;9.07;7.68;;;;;;;;;;10062792;28;20071;-62
2023/05/27 07:12:50;;;;;;;15.50;8.73;;;;;;;;;;10076237;28;20075;-63
2023/05/27 07:18:02;;;;;;;10.13;8.38;;;;;;;;;;10064839;28;20473;-63
2023/05/27 07:23:01;;;;;;;15.10;9.82;;;;;;;;;;10068503;28;20090;-64
2023/05/27 07:28:01;;;;;;;10.40;8.48;;;;;;;;;;10112397;28;20077;-64
2023/05/27 07:33:02;;;;;;;15.10;8.85;;;;;;;;;;10095897;28;20082;-64
2023/05/27 07:38:02;;;;;;;12.13;9.02;;;;;;;;;;10097690;28;20449;-64
2023/05/27 07:43:00;;;;;;;10.93;8.93;;;;;;;;;;10094626;28;20070;-61
2023/05/27 07:48:05;;;;;;;14.32;9.25;;;;;;;;;;10096282;28;20162;-64
2023/05/27 07:53:03;;;;;;;9.95;7.63;;;;;;;;;;10098204;28;20070;-62
2023/05/27 07:58:03;;;;;;;10.57;8.48;;;;;;;;;;10117441;28;20078;-63
2023/05/27 08:03:15;;;;;;;15.02;8.55;;;;;;;;;;10097181;28;20082;-63
2023/05/27 08:08:34;;;;;;;9.65;8.63;;;;;;;;;;10098794;28;20293;-63
2023/05/27 08:13:42;;;;;;;11.73;9.02;;;;;;;;;;10106069;28;20071;-62
2023/05/27 08:19:01;;;;;;;10.32;9.10;;;;;;;;;;10093331;28;20093;-62
2023/05/27 08:24:14;;;;;;;14.02;9.70;;;;;;;;;;10098188;28;20097;-62
2023/05/27 08:29:39;;;;;;;10.48;9.48;;;;;;;;;;10077672;28;20591;-63
2023/05/27 08:34:57;;;;;;;15.23;10.82;;;;;;;;;;10101536;28;20144;-63
2023/05/27 08:39:57;;;;;;;15.52;14.00;;;;;;;;;;10101944;28;20081;-63
2023/05/27 08:45:10;;;;;;;14.37;10.70;;;;;;;;;;10113275;28;20085;-63
2023/05/27 08:50:11;;;;;;;12.40;9.65;;;;;;;;;;10095881;28;20089;-63
2023/05/27 08:55:11;;;;;;;12.00;10.00;;;;;;;;;;10110178;28;20082;-63
2023/05/27 09:00:14;;;;;;;13.00;9.30;;;;;;;;;;10104291;28;20476;-66
2023/05/27 09:05:17;;;;;;;10.50;9.27;;;;;;;;;;10113277;28;20085;-65
2023/05/27 09:10:16;;;;;;;11.50;9.95;;;;;;;;;;10100174;28;20070;-65
2023/05/27 09:15:14;;;;;;;15.07;9.25;;;;;;;;;;10103997;28;20059;-66
2023/05/27 09:20:13;;;;;;;10.13;9.23;;;;;;;;;;10092857;28;20074;-65
2023/05/27 09:25:15;;;;;;;11.60;8.75;;;;;;;;;;10092625;28;20542;-65
2023/05/27 09:30:14;;;;;;;13.73;9.35;;;;;;;;;;10096261;28;20078;-66
2023/05/27 09:35:13;;;;;;;10.95;7.85;;;;;;;;;;10093849;28;20516;-66
2023/05/27 09:40:14;;;;;;;13.68;8.95;;;;;;;;;;10093702;28;20841;-65
2023/05/27 09:45:13;;;;;;;11.18;8.75;;;;;;;;;;10094950;28;20081;-66
2023/05/27 09:50:14;;;;;;;9.50;8.13;;;;;;;;;;10095688;28;20070;-66
2023/05/27 09:55:14;;;;;;;8.52;7.72;;;;;;;;;;10094447;28;20520;-65
2023/05/27 10:00:14;;;;;;;10.60;8.40;;;;;;;;;;10093900;28;20505;-65
2023/05/27 10:05:13;;;;;;;10.00;8.27;;;;;;;;;;10096828;28;20114;-66
2023/05/27 10:10:16;;;;;;;10.65;7.32;;;;;;;;;;10095777;28;20062;-65
2023/05/27 10:15:21;;;;;;;10.23;8.27;;;;;;;;;;10096612;28;20085;-66
2023/05/27 10:20:24;;;;;;;8.80;7.32;;;;;;;;;;10097117;28;20066;-65
2023/05/27 10:25:35;;;;;;;13.95;8.77;;;;;;;;;;10095494;28;20083;-65
2023/05/27 10:30:43;;;;;;;11.05;8.15;;;;;;;;;;10095924;28;20144;-65
2023/05/27 10:35:45;;;;;;;9.25;7.45;;;;;;;;;;10097605;28;20077;-65
2023/05/27 10:40:46;;;;;;;14.15;7.70;;;;;;;;;;10100279;28;20062;-67
2023/05/27 10:45:44;;;;;;;8.40;7.05;;;;;;;;;;10094711;28;20078;-65
2023/05/27 10:50:50;;;;;;;11.43;7.95;;;;;;;;;;10095800;28;20077;-65
2023/05/27 10:55:51;;;;;;;8.73;7.97;;;;;;;;;;10095465;28;20066;-65
2023/05/27 11:00:50;;;;;;;9.85;8.43;;;;;;;;;;10102012;28;20070;-65
2023/05/27 11:05:58;;;;;;;10.70;8.13;;;;;;;;;;10102797;28;20090;-65
2023/05/27 11:11:04;;;;;;;12.50;7.47;;;;;;;;;;10100040;28;20077;-67
2023/05/27 11:16:03;;;;;;;9.30;8.27;;;;;;;;;;10100068;28;20082;-65
2023/05/27 11:21:02;;;;;;;9.10;7.60;;;;;;;;;;10101373;28;20103;-65
2023/05/27 11:26:01;;;;;;;12.95;9.18;;;;;;;;;;10103275;28;20090;-65
2023/05/27 11:31:03;;;;;;;9.55;6.97;;;;;;;;;;10100434;28;20062;-66
2023/05/27 11:36:04;;;;;;;10.13;8.55;;;;;;;;;;10100481;28;20075;-65
2023/05/27 11:41:07;;;;;;;7.57;6.88;;;;;;;;;;10099589;28;20712;-65
2023/05/27 11:46:07;;;;;;;10.63;8.23;;;;;;;;;;10100606;28;20082;-65
2023/05/27 11:51:05;;;;;;;8.05;7.25;;;;;;;;;;10100417;28;20078;-65
2023/05/27 11:56:03;;;;;;;7.57;6.78;;;;;;;;;;10099607;28;20070;-66
2023/05/27 12:01:02;;;;;;;11.57;8.02;;;;;;;;;;10099871;28;20071;-65
2023/05/27 12:06:01;;;;;;;7.85;7.18;;;;;;;;;;10098273;28;20152;-65
2023/05/27 12:11:00;;;;;;;10.00;7.90;;;;;;;;;;10097087;28;20074;-65
2023/05/27 12:15:58;;;;;;;10.23;9.07;;;;;;;;;;10100248;28;20104;-65
2023/05/27 12:20:56;;;;;;;7.10;5.90;;;;;;;;;;10100098;28;20474;-65
2023/05/27 12:25:56;;;;;;;9.73;5.93;;;;;;;;;;10099676;28;20087;-65
2023/05/27 12:30:54;;;;;;;8.95;6.68;;;;;;;;;;10100283;28;20075;-65
2023/05/27 12:35:52;;;;;;;7.30;6.63;;;;;;;;;;10100340;28;20073;-65
2023/05/27 12:40:51;;;;;;;7.93;7.13;;;;;;;;;;10098373;28;20657;-65
2023/05/27 12:45:50;;;;;;;9.05;8.10;;;;;;;;;;10098623;28;20086;-66
2023/05/27 12:50:49;;;;;;;12.10;7.95;;;;;;;;;;10101008;28;20078;-65
2023/05/27 12:55:47;;;;;;;11.35;9.50;;;;;;;;;;10099187;28;20062;-65
2023/05/27 13:00:46;;;;;;;8.90;7.20;;;;;;;;;;10095828;28;20079;-66
2023/05/27 13:05:46;;;;;;;9.45;8.40;;;;;;;;;;10098486;28;20085;-66
2023/05/27 13:10:44;;;;;;;10.35;6.38;;;;;;;;;;10098272;28;20079;-65
2023/05/27 13:15:43;;;;;;;7.18;5.57;;;;;;;;;;10097292;28;20062;-64
2023/05/27 13:20:41;;;;;;;8.68;5.65;;;;;;;;;;10097485;28;20067;-64
2023/05/27 13:25:41;;;;;;;5.40;4.90;;;;;;;;;;10090840;28;20112;-64
2023/05/27 13:30:40;;;;;;;12.52;6.85;;;;;;;;;;10097443;28;20342;-64
2023/05/27 13:35:39;;;;;;;6.70;5.88;;;;;;;;;;10097027;28;20476;-64
2023/05/27 13:40:37;;;;;;;11.45;6.45;;;;;;;;;;10098547;28;20067;-63
2023/05/27 13:45:36;;;;;;;5.38;4.93;;;;;;;;;;10096712;28;20097;-64
2023/05/27 13:50:35;;;;;;;7.70;5.60;;;;;;;;;;10094018;28;20074;-64
2023/05/27 13:55:33;;;;;;;13.25;7.07;;;;;;;;;;10096662;28;20067;-64
2023/05/27 14:00:31;;;;;;;10.00;7.07;;;;;;;;;;10098055;28;20070;-64
2023/05/27 14:05:32;;;;;;;11.38;7.18;;;;;;;;;;10095083;28;20551;-64
2023/05/27 14:10:30;;;;;;;11.98;7.78;;;;;;;;;;10095607;28;20476;-64
2023/05/27 14:15:29;;;;;;;8.13;5.32;;;;;;;;;;10095236;28;20526;-64
2023/05/27 14:20:29;;;;;;;8.63;5.90;;;;;;;;;;10097416;28;20535;-65
2023/05/27 14:25:29;;;;;;;16.48;9.88;;;;;;;;;;10097155;28;20082;-64
2023/05/27 14:30:27;;;;;;;10.48;8.38;;;;;;;;;;10095237;28;20109;-64
2023/05/27 14:35:25;;;;;;;17.38;10.70;;;;;;;;;;10102596;28;20081;-64
2023/05/27 14:40:23;;;;;;;13.60;9.20;;;;;;;;;;10104968;28;20071;-64
2023/05/27 14:45:23;;;;;;;7.15;4.70;;;;;;;;;;10104450;28;20087;-63
2023/05/27 14:50:22;;;;;;;6.00;4.47;;;;;;;;;;10105242;28;20495;-64
2023/05/27 14:55:20;;;;;;;5.88;5.20;;;;;;;;;;10105590;28;20477;-64
2023/05/27 15:00:18;;;;;;;4.90;4.40;;;;;;;;;;10105507;28;20062;-63
2023/05/27 15:05:18;;;;;;;7.97;5.22;;;;;;;;;;10102936;28;20520;-63
2023/05/27 15:10:16;;;;;;;9.50;4.93;;;;;;;;;;10101564;28;20070;-63
2023/05/27 15:15:15;;;;;;;7.30;5.65;;;;;;;;;;10104396;28;20117;-64
2023/05/27 15:20:14;;;;;;;8.07;5.00;;;;;;;;;;10099535;28;20077;-64
2023/05/27 15:25:14;;;;;;;10.98;4.95;;;;;;;;;;10097369;28;20556;-64
2023/05/27 15:30:12;;;;;;;9.10;4.72;;;;;;;;;;10098275;28;20084;-63
2023/05/27 15:35:11;;;;;;;12.23;4.90;;;;;;;;;;10101590;28;20096;-64
2023/05/27 15:40:09;;;;;;;8.32;4.72;;;;;;;;;;10109426;28;20077;-64
2023/05/27 15:45:09;;;;;;;17.48;6.50;;;;;;;;;;10104629;28;20078;-64
2023/05/27 15:50:08;;;;;;;13.63;7.90;;;;;;;;;;10102526;28;20074;-61
2023/05/27 15:55:06;;;;;;;10.77;6.22;;;;;;;;;;10100216;28;20543;-61
2023/05/27 16:00:05;;;;;;;16.05;7.82;;;;;;;;;;10100140;28;20533;-61
2023/05/27 16:05:12;;;;;;;14.23;7.83;;;;;;;;;;10100881;28;20087;-60
2023/05/27 16:10:11;;;;;;;7.50;5.65;;;;;;;;;;10106587;28;20074;-60
2023/05/27 16:15:10;;;;;;;9.38;5.57;;;;;;;;;;10103210;28;20069;-62
2023/05/27 16:20:10;;;;;;;12.00;6.07;;;;;;;;;;10103437;28;20086;-62
2023/05/27 16:25:09;;;;;;;12.65;8.40;;;;;;;;;;10098651;28;20154;-61
2023/05/27 16:30:09;;;;;;;14.05;9.10;;;;;;;;;;10099141;28;20074;-61
2023/05/27 16:35:08;;;;;;;14.07;9.38;;;;;;;;;;10097695;28;20490;-61
2023/05/27 16:40:09;;;;;;;10.40;6.88;;;;;;;;;;10100191;28;20597;-62
2023/05/27 16:45:07;;;;;;;9.18;6.85;;;;;;;;;;10098341;28;20083;-62
2023/05/27 16:50:06;;;;;;;14.90;6.60;;;;;;;;;;10099879;28;20066;-62
2023/05/27 16:55:06;;;;;;;8.30;6.85;;;;;;;;;;10092550;28;20071;-62
2023/05/27 17:00:06;;;;;;;7.10;6.40;;;;;;;;;;10093471;28;20456;-62
2023/05/27 17:05:04;;;;;;;7.68;5.55;;;;;;;;;;10096622;28;20093;-63
2023/05/27 17:10:03;;;;;;;22.77;20.60;;;;;;;;;;10094719;28;20102;-62
2023/05/27 17:15:01;;;;;;;14.25;8.75;;;;;;;;;;10095735;28;20089;-63
2023/05/27 17:20:06;;;;;;;12.25;8.27;;;;;;;;;;10098438;28;20081;-62
2023/05/27 17:25:05;;;;;;;17.23;11.15;;;;;;;;;;10100148;28;20081;-63
2023/05/27 17:30:04;;;;;;;18.90;8.13;;;;;;;;;;10097994;28;20087;-62
2023/05/27 17:35:03;;;;;;;12.52;8.05;;;;;;;;;;10096295;28;20066;-62
2023/05/27 17:40:07;;;;;;;23.23;20.83;;;;;;;;;;10094678;28;20066;-63
2023/05/27 17:45:06;;;;;;;17.83;15.07;;;;;;;;;;10097699;28;20063;-62
2023/05/27 17:50:06;;;;;;;14.57;13.20;;;;;;;;;;10098572;28;20688;-63
2023/05/27 17:55:05;;;;;;;25.15;12.43;;;;;;;;;;10101434;28;20077;-63
2023/05/27 18:00:05;;;;;;;19.33;9.20;;;;;;;;;;10100578;28;20085;-63
2023/05/27 18:05:03;;;;;;;13.05;10.82;;;;;;;;;;10101441;28;20088;-63
2023/05/27 18:10:03;;;;;;;14.55;12.02;;;;;;;;;;10098255;28;20070;-63
2023/05/27 18:15:01;;;;;;;15.13;11.45;;;;;;;;;;10090133;28;20070;-63
2023/05/27 18:20:00;;;;;;;14.00;10.38;;;;;;;;;;10089255;28;20085;-62
2023/05/27 18:24:58;;;;;;;13.27;8.20;;;;;;;;;;10086865;28;20086;-63
2023/05/27 18:29:57;;;;;;;15.13;8.02;;;;;;;;;;10096116;28;20519;-63
2023/05/27 18:34:56;;;;;;;10.02;8.05;;;;;;;;;;10096731;28;20067;-62
2023/05/27 18:39:54;;;;;;;11.00;7.90;;;;;;;;;;10095057;28;20058;-62
2023/05/27 18:44:52;;;;;;;13.32;8.20;;;;;;;;;;10096177;28;20063;-62
2023/05/27 18:49:51;;;;;;;9.50;8.32;;;;;;;;;;10092288;28;20103;-63
2023/05/27 18:54:50;;;;;;;13.90;8.20;;;;;;;;;;10098903;28;20517;-63
2023/05/27 18:59:48;;;;;;;9.32;8.43;;;;;;;;;;10092357;28;20077;-63
2023/05/27 19:04:47;;;;;;;9.90;8.43;;;;;;;;;;10091105;28;20472;-63
2023/05/27 19:09:49;;;;;;;12.07;8.57;;;;;;;;;;10094007;28;20085;-63
2023/05/27 19:14:47;;;;;;;9.85;8.13;;;;;;;;;;10092211;28;20085;-63
2023/05/27 19:19:46;;;;;;;10.45;8.65;;;;;;;;;;10098134;28;20074;-63
2023/05/27 19:24:45;;;;;;;12.40;8.23;;;;;;;;;;10100269;28;20088;-63
2023/05/27 19:29:44;;;;;;;8.25;7.45;;;;;;;;;;10101808;28;20089;-62
2023/05/27 19:34:42;;;;;;;9.18;7.90;;;;;;;;;;10099856;28;20523;-63
2023/05/27 19:39:41;;;;;;;14.20;11.90;;;;;;;;;;10111480;28;20085;-63
2023/05/27 19:44:39;;;;;;;17.27;15.25;;;;;;;;;;10100423;28;20490;-63
2023/05/27 19:49:39;;;;;;;10.93;8.57;;;;;;;;;;10102669;28;20079;-63
2023/05/27 19:54:38;;;;;;;10.95;8.25;;;;;;;;;;10097142;28;20070;-62
2023/05/27 19:59:36;;;;;;;12.90;8.25;;;;;;;;;;10098895;28;20070;-62
2023/05/27 20:04:35;;;;;;;9.18;7.53;;;;;;;;;;10101344;28;20078;-62
2023/05/27 20:09:34;;;;;;;10.90;8.05;;;;;;;;;;10075819;28;20792;-63
2023/05/27 20:14:32;;;;;;;10.75;8.90;;;;;;;;;;10099799;28;20087;-63
2023/05/27 20:19:31;;;;;;;10.85;7.57;;;;;;;;;;10102313;28;20078;-62
2023/05/27 20:24:29;;;;;;;10.60;7.38;;;;;;;;;;10106849;28;20609;-62
2023/05/27 20:29:28;;;;;;;10.73;6.90;;;;;;;;;;10104978;28;20489;-62
2023/05/27 20:34:26;;;;;;;10.05;7.50;;;;;;;;;;10102847;28;20081;-62
2023/05/27 20:39:25;;;;;;;10.20;7.57;;;;;;;;;;10102314;28;20063;-62
2023/05/27 20:44:23;;;;;;;8.88;7.10;;;;;;;;;;10100615;28;20085;-61
2023/05/27 20:49:22;;;;;;;15.35;7.82;;;;;;;;;;10104335;28;20070;-60
2023/05/27 20:54:21;;;;;;;10.15;7.20;;;;;;;;;;10100653;28;20074;-61
2023/05/27 20:59:19;;;;;;;13.18;8.63;;;;;;;;;;10105312;28;20074;-61
2023/05/27 21:04:17;;;;;;;21.33;10.45;;;;;;;;;;10100962;28;20198;-60
2023/05/27 21:09:17;;;;;;;15.88;8.98;;;;;;;;;;10109313;28;20078;-61
2023/05/27 21:14:15;;;;;;;9.15;7.35;;;;;;;;;;10100294;28;20074;-61
2023/05/27 21:19:14;;;;;;;13.27;7.68;;;;;;;;;;10101415;28;20074;-61
2023/05/27 21:24:12;;;;;;;16.55;7.30;;;;;;;;;;10108930;28;20082;-62
2023/05/27 21:29:12;;;;;;;9.10;7.85;;;;;;;;;;10098615;28;20074;-61
2023/05/27 21:34:10;;;;;;;9.23;7.10;;;;;;;;;;10096149;28;20069;-61
2023/05/27 21:39:10;;;;;;;9.10;5.63;;;;;;;;;;10102695;28;20137;-61
2023/05/27 21:44:08;;;;;;;8.10;5.63;;;;;;;;;;10101823;28;20069;-60
2023/05/27 21:49:08;;;;;;;6.60;5.20;;;;;;;;;;10092052;28;20067;-62
2023/05/27 21:54:06;;;;;;;9.35;5.43;;;;;;;;;;10097072;28;20070;-61
2023/05/27 21:59:05;;;;;;;11.80;5.90;;;;;;;;;;10095965;28;20085;-63
2023/05/27 22:04:03;;;;;;;6.03;5.50;;;;;;;;;;10098025;28;20624;-62
2023/05/27 22:09:03;;;;;;;8.45;5.78;;;;;;;;;;10095719;28;20417;-62
2023/05/27 22:14:01;;;;;;;6.15;5.55;;;;;;;;;;10095627;28;20078;-63
2023/05/27 22:18:59;;;;;;;9.45;5.72;;;;;;;;;;10097788;28;20083;-62
2023/05/27 22:23:57;;;;;;;8.02;5.60;;;;;;;;;;10094586;28;20089;-63
2023/05/27 22:28:57;;;;;;;9.43;5.97;;;;;;;;;;10095687;28;20115;-62
2023/05/27 22:33:55;;;;;;;13.00;6.78;;;;;;;;;;10095541;28;20271;-62
2023/05/27 22:38:53;;;;;;;11.45;6.57;;;;;;;;;;10096979;28;20100;-62
2023/05/27 22:43:52;;;;;;;8.63;6.03;;;;;;;;;;10096885;28;20062;-62
2023/05/27 22:48:54;;;;;;;9.43;5.60;;;;;;;;;;10094519;28;20081;-62
2023/05/27 22:54:01;;;;;;;12.15;6.47;;;;;;;;;;10097840;28;20070;-62
2023/05/27 22:58:59;;;;;;;8.05;6.05;;;;;;;;;;10103042;28;20079;-62
2023/05/27 23:04:05;;;;;;;9.13;6.57;;;;;;;;;;10102362;28;20070;-62
2023/05/27 23:09:05;;;;;;;7.38;5.70;;;;;;;;;;10098966;28;20085;-62
2023/05/27 23:14:07;;;;;;;9.40;6.28;;;;;;;;;;10102964;28;20516;-62
2023/05/27 23:19:07;;;;;;;8.75;5.53;;;;;;;;;;10100803;28;20059;-61
2023/05/27 23:24:06;;;;;;;9.73;6.00;;;;;;;;;;10100796;28;20090;-62
2023/05/27 23:29:06;;;;;;;8.63;6.53;;;;;;;;;;10100096;28;20094;-61
2023/05/27 23:34:09;;;;;;;6.75;6.20;;;;;;;;;;10099981;28;20301;-62
2023/05/27 23:39:12;;;;;;;11.20;6.65;;;;;;;;;;10100952;28;20523;-61
2023/05/27 23:44:13;;;;;;;8.37;6.87;;;;;;;;;;10099911;28;20496;-64
2023/05/27 23:49:21;;;;;;;9.68;6.45;;;;;;;;;;10100074;28;20085;-63
2023/05/27 23:54:22;;;;;;;8.85;6.68;;;;;;;;;;10102045;28;20496;-62
2023/05/27 23:59:20;;;;;;;10.43;6.72;;;;;;;;;;10100744;28;20081;-62
